Ames, Oklahoma
Current Conditions -  °F | °C
As of 1:58 AM on Thursday 27 Nov 2014 (Local Time) from KEND Reporting Station
Clear Clear  
Wind Chill: 23°   Ceiling: Unl
Heat Index: 29°   Visibility: 10mi
Dew Point: 22°   Wind: 6mph
Humidity: 73%   Direction: 340°NNW
Pressure: 30.47"   Gusts: NA
Location:  36.25°N, 98.19°W
Report Text: KEND 270758Z AUTO 34005KT 10SM CLR M01/M06 A3047 RMK AO2 SLP327 T10151058 $
Loading
Personal Weather Stations






























Interactive Weather Map New forecast layout! Learn more

10-Day Weather Forecast

Advertisements
Track Severe Weather on mobile